createdAt,value
2022-08-12T00:00:58.501Z,4.38
2022-08-12T00:02:14.398Z,4.24
2022-08-12T00:03:30.647Z,4.42
2022-08-12T00:04:47.464Z,4.18
2022-08-12T00:06:04.549Z,3.93
2022-08-12T00:07:22.249Z,4.10
2022-08-12T00:08:37.985Z,4.25
2022-08-12T00:09:55.375Z,4.34
2022-08-12T00:11:12.631Z,4.16
2022-08-12T00:12:28.796Z,4.11
2022-08-12T00:13:44.594Z,4.12
2022-08-12T00:15:03.505Z,4.46
2022-08-12T00:16:19.888Z,4.16
2022-08-12T00:17:37.791Z,4.41
2022-08-12T00:18:55.378Z,4.28
2022-08-12T00:20:11.358Z,3.98
2022-08-12T00:21:27.240Z,4.20
2022-08-12T00:22:43.446Z,4.38
2022-08-12T00:24:01.147Z,4.07
2022-08-12T00:25:21.028Z,4.08
2022-08-12T00:26:56.778Z,4.10
2022-08-12T00:28:14.530Z,3.42
2022-08-12T00:29:30.621Z,4.36
2022-08-12T00:30:46.864Z,4.03
2022-08-12T00:32:02.704Z,4.44
2022-08-12T00:33:19.948Z,3.71
2022-08-12T00:34:37.851Z,4.01
2022-08-12T00:35:53.561Z,4.03
2022-08-12T00:37:12.874Z,4.25
2022-08-12T00:38:29.811Z,3.96
2022-08-12T00:39:46.155Z,4.42
2022-08-12T00:41:02.711Z,4.09
2022-08-12T00:42:11.902Z,3.90
2022-08-12T00:43:15.229Z,4.20
2022-08-12T00:44:15.130Z,4.18
2022-08-12T00:45:12.554Z,4.07
2022-08-12T00:46:28.840Z,3.97
2022-08-12T00:47:26.280Z,4.01
2022-08-12T00:48:23.831Z,4.04
2022-08-12T00:49:25.936Z,3.73
2022-08-12T00:50:26.464Z,4.22
2022-08-12T00:51:44.735Z,4.22
2022-08-12T00:52:43.933Z,4.22
2022-08-12T00:53:41.284Z,4.10
2022-08-12T00:54:44.247Z,4.55
2022-08-12T00:55:45.024Z,4.21
2022-08-12T00:56:43.004Z,3.93
2022-08-12T00:57:44.260Z,4.02
2022-08-12T00:58:48.487Z,4.13
2022-08-12T00:59:45.925Z,4.10
2022-08-12T01:00:44.615Z,4.11
2022-08-12T01:02:00.915Z,4.30
2022-08-12T01:03:06.207Z,4.38
2022-08-12T01:04:24.958Z,4.31
2022-08-12T01:05:44.205Z,3.96
2022-08-12T01:07:01.530Z,3.85
2022-08-12T01:08:17.751Z,4.06
2022-08-12T01:09:34.015Z,3.95
2022-08-12T01:10:53.336Z,4.34
2022-08-12T01:11:51.635Z,4.04
2022-08-12T01:12:50.133Z,4.08
2022-08-12T01:13:48.870Z,4.37
2022-08-12T01:14:46.761Z,4.37
2022-08-12T01:15:49.648Z,4.37
2022-08-12T01:16:48.685Z,4.64
2022-08-12T01:17:47.311Z,4.22
2022-08-12T01:18:44.804Z,3.99
2022-08-12T01:19:42.395Z,4.70
2022-08-12T01:20:45.938Z,4.39
2022-08-12T01:21:58.625Z,4.39
2022-08-12T01:23:08.498Z,4.13
2022-08-12T01:24:30.364Z,4.06
2022-08-12T01:25:38.458Z,4.65
2022-08-12T01:26:54.907Z,4.41
2022-08-12T01:27:53.150Z,3.93
2022-08-12T01:28:52.965Z,4.10
2022-08-12T01:29:52.800Z,4.29
2022-08-12T01:30:50.892Z,4.87
2022-08-12T01:31:50.174Z,4.57
2022-08-12T01:32:48.776Z,4.55
2022-08-12T01:34:35.344Z,4.63
2022-08-12T01:35:24.331Z,4.47
2022-08-12T01:36:26.070Z,4.40
2022-08-12T01:37:25.692Z,4.72
2022-08-12T01:38:29.960Z,4.30
2022-08-12T01:39:32.569Z,4.24
2022-08-12T01:40:35.797Z,4.53
2022-08-12T01:41:38.800Z,4.18
2022-08-12T01:42:44.531Z,4.30
2022-08-12T01:43:43.032Z,4.48
2022-08-12T01:44:40.395Z,4.67
2022-08-12T01:45:57.476Z,4.53
2022-08-12T01:47:05.968Z,4.43
2022-08-12T01:48:05.721Z,4.59
2022-08-12T01:49:21.736Z,4.24
2022-08-12T01:50:33.321Z,4.31
2022-08-12T01:52:21.159Z,4.58
2022-08-12T01:53:10.560Z,4.55
2022-08-12T01:54:10.889Z,4.50
2022-08-12T01:55:11.332Z,4.25
2022-08-12T01:56:10.261Z,4.49
2022-08-12T01:57:07.573Z,4.01
2022-08-12T01:58:27.203Z,4.14
2022-08-12T01:59:56.265Z,4.53
2022-08-12T02:00:59.183Z,4.49
2022-08-12T02:01:59.726Z,4.15
2022-08-12T02:03:17.346Z,4.63
2022-08-12T02:04:33.155Z,4.00
2022-08-12T02:06:09.166Z,4.45
2022-08-12T02:07:28.060Z,4.63
2022-08-12T02:09:02.806Z,4.52
2022-08-12T02:10:50.315Z,4.74
2022-08-12T02:11:50.830Z,4.02
2022-08-12T02:13:10.087Z,4.31
2022-08-12T02:14:26.126Z,4.74
2022-08-12T02:15:33.012Z,4.31
2022-08-12T02:16:30.359Z,4.62
2022-08-12T02:17:56.315Z,4.55
2022-08-12T02:19:25.868Z,4.80
2022-08-12T02:20:35.254Z,4.28
2022-08-12T02:21:46.517Z,4.51
2022-08-12T02:22:45.382Z,4.29
2022-08-12T02:23:43.151Z,4.65
2022-08-12T02:24:43.177Z,4.22
2022-08-12T02:25:47.677Z,4.16
2022-08-12T02:26:47.375Z,4.32
2022-08-12T02:27:49.472Z,4.30
2022-08-12T02:28:47.702Z,4.61
2022-08-12T02:29:45.234Z,4.54
2022-08-12T02:30:42.864Z,4.63
2022-08-12T02:31:43.392Z,4.06
2022-08-12T02:32:42.468Z,4.81
2022-08-12T02:33:41.541Z,4.54
2022-08-12T02:34:39.366Z,4.32
2022-08-12T02:35:37.594Z,4.44
2022-08-12T02:36:37.565Z,4.43
2022-08-12T02:37:36.788Z,4.40
2022-08-12T02:38:34.367Z,4.64
2022-08-12T02:39:34.133Z,4.64
2022-08-12T02:40:35.251Z,4.64
2022-08-12T02:41:32.699Z,4.59
2022-08-12T02:42:33.960Z,4.90
2022-08-12T02:43:36.053Z,4.82
2022-08-12T02:44:37.916Z,5.03
2022-08-12T02:45:42.176Z,4.43
2022-08-12T02:46:42.205Z,5.03
2022-08-12T02:48:00.552Z,4.87
2022-08-12T02:49:03.319Z,4.52
2022-08-12T02:50:03.369Z,4.61
2022-08-12T02:51:04.072Z,4.42
2022-08-12T02:52:02.894Z,4.68
2022-08-12T02:53:01.753Z,4.54
2022-08-12T02:54:06.650Z,4.71
2022-08-12T02:55:34.991Z,4.51
2022-08-12T02:56:34.093Z,4.78
2022-08-12T02:57:32.018Z,4.93
2022-08-12T02:58:33.248Z,4.87
2022-08-12T02:59:33.427Z,4.99
2022-08-12T03:00:31.769Z,4.81
2022-08-12T03:01:34.007Z,4.84
2022-08-12T03:02:35.228Z,5.15
2022-08-12T03:03:34.745Z,5.23
2022-08-12T03:04:35.822Z,5.07
2022-08-12T03:05:42.113Z,4.97
2022-08-12T03:06:46.459Z,5.12
2022-08-12T03:07:59.701Z,5.04
2022-08-12T03:09:00.493Z,5.34
2022-08-12T03:10:37.338Z,4.88
2022-08-12T03:11:42.908Z,4.98
2022-08-12T03:12:49.840Z,5.00
2022-08-12T03:13:53.113Z,5.34
2022-08-12T03:14:51.978Z,5.03
2022-08-12T03:15:49.850Z,4.95
2022-08-12T03:16:50.596Z,5.08
2022-08-12T03:18:25.686Z,5.39
2022-08-12T03:19:13.955Z,5.29
2022-08-12T03:20:16.402Z,5.15
2022-08-12T03:21:17.176Z,5.68
2022-08-12T03:22:40.655Z,5.31
2022-08-12T03:23:40.699Z,4.90
2022-08-12T03:24:38.885Z,5.10
2022-08-12T03:25:40.151Z,5.45
2022-08-12T03:26:37.674Z,5.76
2022-08-12T03:27:42.019Z,6.96
2022-08-12T03:28:51.659Z,6.35
2022-08-12T03:29:51.525Z,6.73
2022-08-12T03:30:56.517Z,6.69
2022-08-12T03:31:59.903Z,6.58
2022-08-12T03:32:58.829Z,5.88
2022-08-12T03:34:26.619Z,6.28
2022-08-12T03:35:41.129Z,6.03
2022-08-12T03:36:41.246Z,5.41
2022-08-12T03:37:40.209Z,5.49
2022-08-12T03:38:42.956Z,5.65
2022-08-12T03:39:40.353Z,6.31
2022-08-12T03:41:18.088Z,6.09
2022-08-12T03:42:38.261Z,6.12
2022-08-12T03:44:02.499Z,6.66
2022-08-12T03:45:27.471Z,6.03
2022-08-12T03:46:47.345Z,5.77
2022-08-12T03:48:18.977Z,6.43
2022-08-12T03:49:36.374Z,6.19
2022-08-12T03:50:52.784Z,5.68
2022-08-12T03:52:09.723Z,5.52
2022-08-12T03:53:27.073Z,6.04
2022-08-12T03:54:43.901Z,5.52
2022-08-12T03:56:00.158Z,5.83
2022-08-12T03:57:15.971Z,6.23
2022-08-12T03:58:32.676Z,5.64
2022-08-12T03:59:48.553Z,5.34
2022-08-12T04:00:46.982Z,5.72
2022-08-12T04:01:44.422Z,6.15
2022-08-12T04:02:42.000Z,6.22
2022-08-12T04:03:55.057Z,6.34
2022-08-12T04:04:52.554Z,6.28
2022-08-12T04:05:55.321Z,6.29
2022-08-12T04:06:54.221Z,5.79
2022-08-12T04:07:58.226Z,6.00
2022-08-12T04:08:58.071Z,6.87
2022-08-12T04:09:57.676Z,7.49
2022-08-12T04:11:13.768Z,15.65
2022-08-12T04:12:32.826Z,7.35
2022-08-12T04:13:30.568Z,7.90
2022-08-12T04:14:28.028Z,7.18
2022-08-12T04:15:28.958Z,5.87
2022-08-12T04:16:26.430Z,6.09
2022-08-12T04:17:28.252Z,5.82
2022-08-12T04:18:26.047Z,5.58
2022-08-12T04:19:25.200Z,6.00
2022-08-12T04:20:23.742Z,5.91
2022-08-12T04:21:21.227Z,5.44
2022-08-12T04:22:18.571Z,5.98
2022-08-12T04:23:17.003Z,6.00
2022-08-12T04:24:14.410Z,6.42
2022-08-12T04:25:13.082Z,6.77
2022-08-12T04:26:11.554Z,6.79
2022-08-12T04:27:10.547Z,6.34
2022-08-12T04:28:11.185Z,6.27
2022-08-12T04:29:11.440Z,5.93
2022-08-12T04:30:21.225Z,6.04
2022-08-12T04:31:35.519Z,6.07
2022-08-12T04:32:34.505Z,6.31
2022-08-12T04:33:32.679Z,6.17
2022-08-12T04:34:30.042Z,6.54
2022-08-12T04:35:28.283Z,6.56
2022-08-12T04:36:26.080Z,6.16
2022-08-12T04:37:23.476Z,6.37
2022-08-12T04:38:21.360Z,11.06
2022-08-12T04:39:19.029Z,16.82
2022-08-12T04:40:17.258Z,15.68
2022-08-12T04:41:27.681Z,15.75
2022-08-12T04:42:25.876Z,13.24
2022-08-12T04:44:00.190Z,11.43
2022-08-12T04:44:42.497Z,13.67
2022-08-12T04:45:40.260Z,16.29
2022-08-12T04:46:37.875Z,16.04
2022-08-12T04:47:35.619Z,11.50
2022-08-12T04:48:32.974Z,8.22
2022-08-12T04:49:32.823Z,8.16
2022-08-12T04:50:36.168Z,7.84
2022-08-12T04:51:35.102Z,7.44
2022-08-12T04:52:34.943Z,6.95
2022-08-12T04:53:33.164Z,7.37
2022-08-12T04:54:30.945Z,7.11
2022-08-12T04:55:29.221Z,6.53
2022-08-12T04:56:28.400Z,6.50
2022-08-12T04:57:33.036Z,6.19
2022-08-12T04:58:30.373Z,6.64
2022-08-12T04:59:27.787Z,6.10
2022-08-12T05:00:25.117Z,5.82
2022-08-12T05:01:22.459Z,6.06
2022-08-12T05:02:22.174Z,6.23
2022-08-12T05:03:20.286Z,6.26
2022-08-12T05:04:18.922Z,5.63
2022-08-12T05:05:19.260Z,5.77
2022-08-12T05:06:18.925Z,5.93
2022-08-12T05:07:24.509Z,6.18
2022-08-12T05:08:22.565Z,5.51
2022-08-12T05:09:19.932Z,5.81
2022-08-12T05:10:21.756Z,6.20
2022-08-12T05:11:31.714Z,5.95
2022-08-12T05:12:43.066Z,6.50
2022-08-12T05:13:40.966Z,5.60
2022-08-12T05:14:39.969Z,5.79
2022-08-12T05:16:00.215Z,6.25
2022-08-12T05:16:56.313Z,6.10
2022-08-12T05:17:55.649Z,5.79
2022-08-12T05:18:53.126Z,5.83
2022-08-12T05:19:50.812Z,5.77
2022-08-12T05:20:49.229Z,5.95
2022-08-12T05:21:46.813Z,6.26
2022-08-12T05:22:45.453Z,5.90
2022-08-12T05:23:43.605Z,5.78
2022-08-12T05:24:40.973Z,6.20
2022-08-12T05:25:38.525Z,5.63
2022-08-12T05:26:36.304Z,5.63
2022-08-12T05:27:34.247Z,5.99
2022-08-12T05:28:31.740Z,6.08
2022-08-12T05:30:08.128Z,6.40
2022-08-12T05:30:48.820Z,6.06
2022-08-12T05:31:48.123Z,5.93
2022-08-12T05:32:45.891Z,5.80
2022-08-12T05:33:45.812Z,6.09
2022-08-12T05:34:45.935Z,6.20
2022-08-12T05:35:44.969Z,6.16
2022-08-12T05:36:44.183Z,6.09
2022-08-12T05:37:41.510Z,6.34
2022-08-12T05:38:57.761Z,6.22
2022-08-12T05:39:55.217Z,6.29
2022-08-12T05:40:52.682Z,6.24
2022-08-12T05:41:50.068Z,6.18
2022-08-12T05:42:47.770Z,6.14
2022-08-12T05:43:46.846Z,6.12
2022-08-12T05:44:46.087Z,6.07
2022-08-12T05:45:44.985Z,6.38
2022-08-12T05:46:42.644Z,5.80
2022-08-12T05:47:52.849Z,5.49
2022-08-12T05:48:54.365Z,5.55
2022-08-12T05:49:51.732Z,6.27
2022-08-12T05:50:49.179Z,6.21
2022-08-12T05:51:46.857Z,6.00
2022-08-12T05:52:44.271Z,6.05
2022-08-12T05:53:42.448Z,6.56
2022-08-12T05:54:57.160Z,6.10
2022-08-12T05:55:55.036Z,6.29
2022-08-12T05:56:52.407Z,6.07
2022-08-12T05:57:55.980Z,6.30
2022-08-12T05:58:54.593Z,6.55
2022-08-12T05:59:52.031Z,6.34
2022-08-12T06:00:49.344Z,6.85
2022-08-12T06:02:12.642Z,6.66
2022-08-12T06:03:06.163Z,6.91
2022-08-12T06:04:04.356Z,6.57
2022-08-12T06:05:02.704Z,6.32
2022-08-12T06:06:00.141Z,6.07
2022-08-12T06:06:57.585Z,6.51
2022-08-12T06:08:01.716Z,6.57
2022-08-12T06:09:00.825Z,6.29
2022-08-12T06:09:58.175Z,6.71
2022-08-12T06:10:57.195Z,6.87
2022-08-12T06:12:05.916Z,6.38
2022-08-12T06:13:05.812Z,6.33
2022-08-12T06:14:11.935Z,6.00
2022-08-12T06:15:09.915Z,6.35
2022-08-12T06:16:08.313Z,6.52
2022-08-12T06:17:05.838Z,6.90
2022-08-12T06:18:14.051Z,6.89
2022-08-12T06:19:13.889Z,6.72
2022-08-12T06:20:29.541Z,6.39
2022-08-12T06:21:27.505Z,6.94
2022-08-12T06:22:26.725Z,6.76
2022-08-12T06:23:28.613Z,6.30
2022-08-12T06:24:28.694Z,6.65
2022-08-12T06:25:29.281Z,6.34
2022-08-12T06:26:26.679Z,5.91
2022-08-12T06:27:24.050Z,6.27
2022-08-12T06:28:21.585Z,6.96
2022-08-12T06:30:07.362Z,6.79
2022-08-12T06:30:39.018Z,6.71
2022-08-12T06:31:38.559Z,6.47
2022-08-12T06:32:42.895Z,6.08
2022-08-12T06:33:55.584Z,6.90
2022-08-12T06:35:23.321Z,6.39
2022-08-12T06:36:20.950Z,7.00
2022-08-12T06:37:19.300Z,6.99
2022-08-12T06:38:26.930Z,6.93
2022-08-12T06:39:24.471Z,7.07
2022-08-12T06:40:40.424Z,6.71
2022-08-12T06:42:10.693Z,6.58
2022-08-12T06:43:14.249Z,6.38
2022-08-12T06:44:21.156Z,6.68
2022-08-12T06:45:19.039Z,6.54
2022-08-12T06:46:16.491Z,7.03
2022-08-12T06:47:16.595Z,6.91
2022-08-12T06:48:14.173Z,6.79
2022-08-12T06:49:13.264Z,6.86
2022-08-12T06:50:15.878Z,6.49
2022-08-12T06:51:13.421Z,6.78
2022-08-12T06:52:10.812Z,6.61
2022-08-12T06:53:09.399Z,6.53
2022-08-12T06:54:07.416Z,6.44
2022-08-12T06:55:05.263Z,6.61
2022-08-12T06:56:02.996Z,6.57
2022-08-12T06:57:57.275Z,6.69
2022-08-12T06:58:20.476Z,6.47
2022-08-12T06:59:21.475Z,6.80
2022-08-12T07:00:22.568Z,6.31
2022-08-12T07:01:31.369Z,6.49
2022-08-12T07:02:30.678Z,6.44
2022-08-12T07:03:29.901Z,6.45
2022-08-12T07:04:36.939Z,6.28
2022-08-12T07:05:35.526Z,5.93
2022-08-12T07:06:33.048Z,6.53
2022-08-12T07:07:30.475Z,6.36
2022-08-12T07:08:29.310Z,6.33
2022-08-12T07:10:04.759Z,6.40
2022-08-12T07:10:59.109Z,5.82
2022-08-12T07:11:56.562Z,6.08
2022-08-12T07:12:56.630Z,5.95
2022-08-12T07:14:11.682Z,6.34
2022-08-12T07:15:10.323Z,6.34
2022-08-12T07:16:08.154Z,6.46
2022-08-12T07:17:07.582Z,6.25
2022-08-12T07:18:23.714Z,6.39
2022-08-12T07:19:21.139Z,5.86
2022-08-12T07:20:42.512Z,5.98
2022-08-12T07:22:01.785Z,6.03
2022-08-12T07:22:59.226Z,6.21
2022-08-12T07:23:56.978Z,6.10
2022-08-12T07:25:18.007Z,6.27
2022-08-12T07:26:19.783Z,6.21
2022-08-12T07:27:17.435Z,6.61
2022-08-12T07:28:17.470Z,6.10
2022-08-12T07:29:15.184Z,5.76
2022-08-12T07:30:12.762Z,5.81
2022-08-12T07:31:12.355Z,5.92
2022-08-12T07:32:15.198Z,5.59
2022-08-12T07:33:13.651Z,6.22
2022-08-12T07:34:11.116Z,5.94
2022-08-12T07:35:08.690Z,5.99
2022-08-12T07:36:07.814Z,5.92
2022-08-12T07:37:05.224Z,5.55
2022-08-12T07:38:29.696Z,5.82
2022-08-12T07:39:29.785Z,5.62
2022-08-12T07:40:28.387Z,5.72
2022-08-12T07:41:28.476Z,5.49
2022-08-12T07:42:26.366Z,5.90
2022-08-12T07:43:24.421Z,5.87
2022-08-12T07:44:21.915Z,5.55
2022-08-12T07:45:24.589Z,5.37
2022-08-12T07:46:24.152Z,5.39
2022-08-12T07:47:21.583Z,6.00
2022-08-12T07:48:18.996Z,6.10
2022-08-12T07:49:16.399Z,5.89
2022-08-12T07:50:18.862Z,5.90
2022-08-12T07:51:25.262Z,5.70
2022-08-12T07:52:23.037Z,5.72
2022-08-12T07:53:21.329Z,5.75
2022-08-12T07:54:18.922Z,5.85
2022-08-12T07:55:17.476Z,5.45
2022-08-12T07:56:15.802Z,5.79
2022-08-12T07:57:14.751Z,5.64
2022-08-12T07:58:12.182Z,5.37
2022-08-12T07:59:10.113Z,5.54
2022-08-12T08:00:07.835Z,5.13
2022-08-12T08:01:11.835Z,5.46
2022-08-12T08:02:10.094Z,5.45
2022-08-12T08:03:08.989Z,5.71
2022-08-12T08:04:24.935Z,5.23
2022-08-12T08:05:24.190Z,5.01
2022-08-12T08:06:22.281Z,5.29
2022-08-12T08:07:19.713Z,5.00
2022-08-12T08:08:19.583Z,5.03
2022-08-12T08:09:18.228Z,5.06
2022-08-12T08:10:16.741Z,4.83
2022-08-12T08:11:32.900Z,4.90
2022-08-12T08:12:49.131Z,4.68
2022-08-12T08:13:47.950Z,4.80
2022-08-12T08:14:47.202Z,4.50
2022-08-12T08:16:04.080Z,4.67
2022-08-12T08:17:03.555Z,4.84
2022-08-12T08:18:04.849Z,5.04
2022-08-12T08:19:02.455Z,4.67
2022-08-12T08:20:02.588Z,5.14
2022-08-12T08:21:01.593Z,4.69
2022-08-12T08:21:59.117Z,5.04
2022-08-12T08:22:57.984Z,4.83
2022-08-12T08:24:14.921Z,5.07
2022-08-12T08:25:34.744Z,4.47
2022-08-12T08:26:34.319Z,4.68
2022-08-12T08:27:47.217Z,4.43
2022-08-12T08:28:44.614Z,4.24
2022-08-12T08:29:45.480Z,4.43
2022-08-12T08:30:45.633Z,4.65
2022-08-12T08:31:45.650Z,4.68
2022-08-12T08:32:42.990Z,4.38
2022-08-12T08:34:05.359Z,4.47
2022-08-12T08:34:59.831Z,4.27
2022-08-12T08:35:58.275Z,4.51
2022-08-12T08:36:55.937Z,4.28
2022-08-12T08:37:54.151Z,4.27
2022-08-12T08:38:56.028Z,4.23
2022-08-12T08:40:15.302Z,4.30
2022-08-12T08:42:16.798Z,4.26
2022-08-12T08:42:51.356Z,3.73
2022-08-12T08:43:48.919Z,3.91
2022-08-12T08:44:46.359Z,3.81
2022-08-12T08:45:48.351Z,4.50
2022-08-12T08:46:45.703Z,4.06
2022-08-12T08:47:46.743Z,4.20
2022-08-12T08:48:44.282Z,3.95
2022-08-12T08:49:41.688Z,3.90
2022-08-12T08:50:39.070Z,3.69
2022-08-12T08:51:37.337Z,3.97
2022-08-12T08:52:38.842Z,3.85
2022-08-12T08:53:44.666Z,3.78
2022-08-12T08:54:50.670Z,3.87
2022-08-12T08:56:04.464Z,3.99
2022-08-12T08:57:04.648Z,4.07
2022-08-12T08:58:02.019Z,3.81
2022-08-12T08:58:59.417Z,4.22
2022-08-12T08:59:57.055Z,3.95
2022-08-12T09:00:56.295Z,3.89
2022-08-12T09:01:53.752Z,3.92
2022-08-12T09:02:59.309Z,3.92
2022-08-12T09:05:07.636Z,3.87
2022-08-12T09:05:25.493Z,3.73
2022-08-12T09:06:37.245Z,4.17
2022-08-12T09:07:51.765Z,3.86
2022-08-12T09:08:56.855Z,4.37
2022-08-12T09:10:02.272Z,4.36
2022-08-12T09:12:06.821Z,4.10
2022-08-12T09:12:56.630Z,4.50
2022-08-12T09:14:11.388Z,4.23
2022-08-12T09:15:16.690Z,4.29
2022-08-12T09:16:20.194Z,4.18
2022-08-12T09:17:20.941Z,4.33
2022-08-12T09:18:30.839Z,4.47
2022-08-12T09:19:37.762Z,4.33
2022-08-12T09:20:39.397Z,4.10
2022-08-12T09:21:55.142Z,4.27
2022-08-12T09:22:53.556Z,3.74
2022-08-12T09:23:58.770Z,4.17
2022-08-12T09:25:06.193Z,4.22
2022-08-12T09:26:04.898Z,4.33
2022-08-12T09:27:02.309Z,4.54
2022-08-12T09:28:05.220Z,4.19
2022-08-12T09:29:18.358Z,4.43
2022-08-12T09:30:18.597Z,4.06
2022-08-12T09:32:07.412Z,4.05
2022-08-12T09:33:04.470Z,4.81
2022-08-12T09:34:27.608Z,3.88
2022-08-12T09:35:43.079Z,4.44
2022-08-12T09:36:58.549Z,4.46
2022-08-12T09:38:01.231Z,4.46
2022-08-12T09:39:02.760Z,4.80
2022-08-12T09:41:03.812Z,4.33
2022-08-12T09:42:09.028Z,4.45
2022-08-12T09:43:17.903Z,4.14
2022-08-12T09:44:38.922Z,4.30
2022-08-12T09:46:06.606Z,4.62
2022-08-12T09:46:55.974Z,4.54
2022-08-12T09:47:59.377Z,4.44
2022-08-12T09:48:59.362Z,4.84
2022-08-12T09:49:57.842Z,4.89
2022-08-12T09:51:01.568Z,4.60
2022-08-12T09:51:59.145Z,4.35
2022-08-12T09:53:14.782Z,4.86
2022-08-12T09:54:34.673Z,5.16
2022-08-12T09:56:06.398Z,4.38
2022-08-12T09:57:02.924Z,4.71
2022-08-12T09:58:57.280Z,4.50
2022-08-12T10:00:16.187Z,4.38
2022-08-12T10:00:53.069Z,4.54
2022-08-12T10:02:44.867Z,4.47
2022-08-12T10:03:31.292Z,4.89
2022-08-12T10:04:30.077Z,5.19
2022-08-12T10:06:26.216Z,4.97
2022-08-12T10:06:54.382Z,4.80
2022-08-12T10:07:53.240Z,4.80
2022-08-12T10:08:53.593Z,4.76
2022-08-12T10:09:58.155Z,4.60
2022-08-12T10:11:19.891Z,4.46
2022-08-12T10:12:36.628Z,5.39
2022-08-12T10:13:41.987Z,4.79
2022-08-12T10:14:50.294Z,4.89
2022-08-12T10:16:02.404Z,5.13
2022-08-12T10:17:02.349Z,4.99
2022-08-12T10:18:06.991Z,4.66
2022-08-12T10:19:17.535Z,4.96
2022-08-12T10:20:15.335Z,5.05
2022-08-12T10:21:13.990Z,4.94
2022-08-12T10:22:17.143Z,4.88
2022-08-12T10:23:39.961Z,5.10
2022-08-12T10:24:38.142Z,5.34
2022-08-12T10:26:35.281Z,5.16
2022-08-12T10:27:39.562Z,5.40
2022-08-12T10:30:01.898Z,5.02
2022-08-12T10:30:40.030Z,4.99
2022-08-12T10:31:47.092Z,5.00
2022-08-12T10:32:58.619Z,5.15
2022-08-12T10:34:06.423Z,4.81
2022-08-12T10:35:06.403Z,4.77
2022-08-12T10:36:05.175Z,4.79
2022-08-12T10:37:22.652Z,4.77
2022-08-12T10:38:38.714Z,5.15
2022-08-12T10:40:01.911Z,4.71
2022-08-12T10:41:19.183Z,5.16
2022-08-12T10:42:37.234Z,5.25
2022-08-12T10:43:55.097Z,5.12
2022-08-12T10:45:00.934Z,5.20
2022-08-12T10:45:58.665Z,5.48
2022-08-12T10:46:58.211Z,5.39
2022-08-12T10:48:07.287Z,5.22
2022-08-12T10:50:03.623Z,5.46
2022-08-12T10:50:56.230Z,5.54
2022-08-12T10:52:33.144Z,4.86
2022-08-12T10:53:11.449Z,4.52
2022-08-12T10:54:19.243Z,3.96
2022-08-12T10:55:24.352Z,3.91
2022-08-12T10:56:23.524Z,3.96
2022-08-12T10:58:14.096Z,3.92
2022-08-12T10:58:39.331Z,4.11
2022-08-12T11:00:29.424Z,4.15
2022-08-12T11:00:55.250Z,4.01
2022-08-12T11:04:22.741Z,4.31
2022-08-12T11:04:24.440Z,3.90
2022-08-12T11:04:58.207Z,4.23
2022-08-12T11:07:09.832Z,4.19
2022-08-12T11:08:37.766Z,4.28
2022-08-12T11:08:43.090Z,4.22
2022-08-12T11:09:58.491Z,4.68
2022-08-12T11:10:59.388Z,4.34
2022-08-12T11:12:35.713Z,4.25
2022-08-12T11:13:46.201Z,4.37
2022-08-12T11:14:50.205Z,4.44
2022-08-12T11:16:03.428Z,4.42
2022-08-12T11:17:34.071Z,3.85
2022-08-12T11:18:25.953Z,4.13
2022-08-12T11:19:23.986Z,4.36
2022-08-12T11:20:30.899Z,4.06
2022-08-12T11:21:51.391Z,4.80
2022-08-12T11:22:58.789Z,4.53
2022-08-12T11:23:56.606Z,4.61
2022-08-12T11:24:55.445Z,4.89
2022-08-12T11:25:58.263Z,4.53
2022-08-12T11:28:00.459Z,4.56
2022-08-12T11:28:59.410Z,4.88
2022-08-12T11:30:06.969Z,4.54
2022-08-12T11:31:21.077Z,4.45
2022-08-12T11:32:18.452Z,4.29
2022-08-12T11:33:24.376Z,4.18
2022-08-12T11:34:52.842Z,4.38
2022-08-12T11:35:53.087Z,4.40
2022-08-12T11:37:07.300Z,4.49
2022-08-12T11:38:24.009Z,4.39
2022-08-12T11:39:28.432Z,4.59
2022-08-12T11:40:42.741Z,4.35
2022-08-12T11:41:40.706Z,4.29
2022-08-12T11:42:46.957Z,5.01
2022-08-12T11:43:50.754Z,4.67
2022-08-12T11:44:55.564Z,4.63
2022-08-12T11:45:56.722Z,4.43
2022-08-12T11:46:54.857Z,4.60
2022-08-12T11:47:57.509Z,4.49
2022-08-12T11:48:57.161Z,4.58
2022-08-12T11:49:54.683Z,4.65
2022-08-12T11:50:52.808Z,4.32
2022-08-12T11:51:57.779Z,4.35
2022-08-12T11:52:57.165Z,4.50
2022-08-12T11:53:59.536Z,4.47
2022-08-12T11:54:58.284Z,4.38
2022-08-12T11:55:57.246Z,3.98
2022-08-12T11:56:59.956Z,4.07
2022-08-12T11:58:09.173Z,5.12
2022-08-12T12:02:01.887Z,4.62
2022-08-12T12:03:01.943Z,4.68
2022-08-12T12:04:01.884Z,4.40
2022-08-12T12:04:59.407Z,4.66
2022-08-12T12:06:00.462Z,4.68
2022-08-12T12:07:06.947Z,5.08
2022-08-12T12:08:41.274Z,4.71
2022-08-12T12:09:22.346Z,4.75
2022-08-12T12:10:21.494Z,4.76
2022-08-12T12:11:19.123Z,4.83
2022-08-12T12:12:16.673Z,4.56
2022-08-12T12:13:23.195Z,5.09
2022-08-12T12:14:38.037Z,4.57
2022-08-12T12:15:40.857Z,4.62
2022-08-12T12:16:40.027Z,4.38
2022-08-12T12:17:40.951Z,4.87
2022-08-12T12:18:39.306Z,4.89
2022-08-12T12:19:45.292Z,4.99
2022-08-12T12:20:43.764Z,4.35
2022-08-12T12:21:48.273Z,4.50
2022-08-12T12:22:46.594Z,4.73
2022-08-12T12:23:47.163Z,4.36
2022-08-12T12:24:47.468Z,4.43
2022-08-12T12:25:59.362Z,4.51
2022-08-12T12:27:03.809Z,4.16
2022-08-12T12:28:06.071Z,4.47
2022-08-12T12:29:04.442Z,4.46
2022-08-12T12:30:19.682Z,4.65
2022-08-12T12:32:08.973Z,4.61
2022-08-12T12:32:36.402Z,4.55
2022-08-12T12:33:57.254Z,4.49
2022-08-12T12:35:18.418Z,4.42
2022-08-12T12:36:20.185Z,4.26
2022-08-12T12:37:27.034Z,4.40
2022-08-12T12:38:37.911Z,4.54
2022-08-12T12:39:55.259Z,4.10
2022-08-12T12:40:53.296Z,4.36
2022-08-12T12:42:43.642Z,4.15
2022-08-12T12:43:09.753Z,4.17
2022-08-12T12:44:07.355Z,3.83
2022-08-12T12:45:19.095Z,4.09
2022-08-12T12:46:17.957Z,4.11
2022-08-12T12:47:26.081Z,3.92
2022-08-12T12:48:27.390Z,4.15
2022-08-12T12:49:26.309Z,4.08
2022-08-12T12:50:34.923Z,4.26
2022-08-12T12:52:17.262Z,4.37
2022-08-12T12:52:50.896Z,4.21
2022-08-12T12:54:08.588Z,4.40
2022-08-12T12:55:07.331Z,4.43
2022-08-12T12:56:11.121Z,4.52
2022-08-12T12:57:08.543Z,3.97
2022-08-12T12:58:09.562Z,4.18
2022-08-12T12:59:06.938Z,4.22
2022-08-12T13:00:24.980Z,4.36
2022-08-12T13:01:27.745Z,4.39
2022-08-12T13:02:31.774Z,3.92
2022-08-12T13:03:35.457Z,4.11
2022-08-12T13:04:47.813Z,4.04
2022-08-12T13:05:53.602Z,3.87
2022-08-12T13:06:52.303Z,4.38
2022-08-12T13:07:55.052Z,4.25
2022-08-12T13:09:02.940Z,3.94
2022-08-12T13:10:01.948Z,4.00
2022-08-12T13:11:01.545Z,3.98
2022-08-12T13:12:01.143Z,4.34
2022-08-12T13:14:07.926Z,4.39
2022-08-12T13:14:27.934Z,4.07
2022-08-12T13:15:45.080Z,4.17
2022-08-12T13:16:44.507Z,4.06
2022-08-12T13:18:03.215Z,4.39
2022-08-12T13:19:01.937Z,3.69
2022-08-12T13:20:05.630Z,4.16
2022-08-12T13:21:06.798Z,3.77
2022-08-12T13:22:19.572Z,3.85
2022-08-12T13:23:36.001Z,3.77
2022-08-12T13:24:34.777Z,3.79
2022-08-12T13:25:32.725Z,3.90
2022-08-12T13:26:34.729Z,3.86
2022-08-12T13:27:37.245Z,3.79
2022-08-12T13:28:34.583Z,3.91
2022-08-12T13:29:40.259Z,3.84
2022-08-12T13:30:37.650Z,4.46
2022-08-12T13:31:46.614Z,3.81
2022-08-12T13:33:00.138Z,3.95
2022-08-12T13:34:33.784Z,4.01
2022-08-12T13:35:19.360Z,3.89
2022-08-12T13:36:30.200Z,4.25
2022-08-12T13:37:28.786Z,4.09
2022-08-12T13:38:43.850Z,4.06
2022-08-12T13:39:49.684Z,4.23
2022-08-12T13:40:47.178Z,4.08
2022-08-12T13:41:44.656Z,4.16
2022-08-12T13:42:42.292Z,4.01
2022-08-12T13:43:42.409Z,4.24
2022-08-12T13:44:39.795Z,3.79
2022-08-12T13:45:37.199Z,3.87
2022-08-12T13:46:36.293Z,4.17
2022-08-12T13:47:55.531Z,4.22
2022-08-12T13:48:54.292Z,4.34
2022-08-12T13:49:54.542Z,4.38
2022-08-12T13:50:53.560Z,4.22
2022-08-12T13:51:53.703Z,4.51
2022-08-12T13:52:51.623Z,4.39
2022-08-12T13:53:58.275Z,3.89
2022-08-12T13:54:57.617Z,3.91
2022-08-12T13:55:59.427Z,4.04
2022-08-12T13:56:59.132Z,3.89
2022-08-12T13:57:59.921Z,4.16
2022-08-12T13:58:59.595Z,4.04
2022-08-12T14:00:00.797Z,4.07
2022-08-12T14:01:05.899Z,3.94
2022-08-12T14:02:04.473Z,4.01
2022-08-12T14:03:03.328Z,4.01
2022-08-12T14:04:04.475Z,3.90
2022-08-12T14:05:02.286Z,4.00
2022-08-12T14:06:21.237Z,4.02
2022-08-12T14:07:18.661Z,3.90
2022-08-12T14:08:21.334Z,4.03
2022-08-12T14:09:19.929Z,3.72
2022-08-12T14:10:37.466Z,3.76
2022-08-12T14:11:34.963Z,4.07
2022-08-12T14:12:34.828Z,4.10
2022-08-12T14:14:05.596Z,4.14
2022-08-12T14:14:57.858Z,4.05
2022-08-12T14:16:01.492Z,4.06
2022-08-12T14:17:05.307Z,3.83
2022-08-12T14:18:35.487Z,3.78
2022-08-12T14:19:39.223Z,3.91
2022-08-12T14:20:48.370Z,3.58
2022-08-12T14:21:59.380Z,3.82
2022-08-12T14:23:00.005Z,3.78
2022-08-12T14:24:17.472Z,4.19
2022-08-12T14:25:17.947Z,4.03
2022-08-12T14:26:19.978Z,3.96
2022-08-12T14:28:02.783Z,3.67
2022-08-12T14:28:37.715Z,3.94
2022-08-12T14:30:04.356Z,3.91
2022-08-12T14:31:18.332Z,3.86
2022-08-12T14:32:17.710Z,3.96
2022-08-12T14:33:16.278Z,3.56
2022-08-12T14:34:14.699Z,3.94
2022-08-12T14:35:12.545Z,3.83
2022-08-12T14:36:11.824Z,3.42